VTSS/HDY METAR and TAF weather

Enter ICAO airport designator
Station Type Date Time Source
VTSS METAR 2022/01/18 06:30 UTC NOAA

VTSS 180630Z 07013KT 9999 FEW020 31/22 Q1011 NOSIG


Station Type Date Time Source
VTSS Decoded METAR 2022/01/18 06:30 UTC NOAA

Hat Yai, Thailand (VTSS) 06-55N 100-26E 35M
Jan 18, 2022 - 01:30 AM EST / 2022.01.18 0630 UTC
Wind: from the ENE (070 degrees) at 15 MPH (13 KT):0
Visibility: greater than 7 mile(s):0
Sky conditions: mostly clear
Temperature: 87 F (31 C)
Heat index: 92.3 F (33.5 C):1
Dew Point: 71 F (22 C)
Relative Humidity: 58%
Pressure (altimeter): 29.85 in. Hg (1011 hPa)
ob: VTSS 180630Z 07013KT 9999 FEW020 31/22 Q1011 NOSIG
cycle: 6

Station Type Date Time Source
VTSS TAF 2022/01/18 06:37 UTC NOAA

TAF VTSS 180500Z 1806/1906 07014KT 9999 SCT020
BECMG 1814/1816 30004KT
BECMG 1903/1905 07014KT

Example: see airport list